Time;durP1;ratioP1;P1;durP2;ratioP2;P2;SDS_P1;SDS_P2;PMS_P1;PMS_P2;Temp;Humidity;BMP_temperature;BMP_pressure;BME280_temperature;BME280_humidity;BME280_pressure;Samples;Min_cycle;Max_cycle;Signal;HPM_P1;HPM_P2
2023/08/09 00:06:49;;;;;;;;;;;14.60;99.90;;;;;;21099542;28;20018;-73
2023/08/09 00:16:49;;;;;;;;;;;14.40;99.90;;;;;;21068963;28;19923;-72
2023/08/09 00:26:50;;;;;;;;;;;14.30;99.90;;;;;;21059416;28;20074;-73
2023/08/09 00:36:51;;;;;;;;;;;14.50;99.90;;;;;;21054147;28;19918;-73
2023/08/09 00:46:52;;;;;;;;;;;14.50;99.90;;;;;;21051122;28;19927;-73
2023/08/09 00:56:54;;;;;;;;;;;14.20;99.90;;;;;;21077222;28;19955;-73
2023/08/09 01:07:03;;;;;;;;;;;14.20;99.90;;;;;;21083954;28;19916;-73
2023/08/09 01:17:05;;;;;;;;;;;14.10;99.90;;;;;;21091202;28;19928;-73
2023/08/09 01:27:06;;;;;;;;;;;14.00;99.90;;;;;;21108443;28;20010;-73
2023/08/09 01:37:14;;;;;;;;;;;13.90;99.90;;;;;;21105733;28;20401;-73
2023/08/09 01:47:15;;;;;;;;;;;14.00;99.90;;;;;;21099178;28;19958;-73
2023/08/09 01:57:16;;;;;;;;;;;13.90;99.90;;;;;;21109444;28;19913;-73
2023/08/09 02:07:18;;;;;;;;;;;14.10;99.90;;;;;;21106193;28;19916;-73
2023/08/09 02:17:19;;;;;;;;;;;13.80;99.90;;;;;;21102719;28;19915;-73
2023/08/09 02:27:19;;;;;;;;;;;13.90;99.90;;;;;;21102043;28;19920;-73
2023/08/09 02:37:20;;;;;;;;;;;13.80;99.90;;;;;;21095112;28;19959;-73
2023/08/09 02:47:21;;;;;;;;;;;13.70;99.90;;;;;;21102502;28;20286;-73
2023/08/09 02:57:21;;;;;;;;;;;13.80;99.90;;;;;;21102507;28;19912;-73
2023/08/09 03:07:22;;;;;;;;;;;13.90;99.90;;;;;;21101770;28;20434;-73
2023/08/09 03:17:23;;;;;;;;;;;13.70;99.90;;;;;;21090649;28;19912;-73
2023/08/09 03:27:23;;;;;;;;;;;13.60;99.90;;;;;;21086934;28;20010;-73
2023/08/09 03:37:25;;;;;;;;;;;13.50;99.90;;;;;;21099395;28;19958;-73
2023/08/09 03:47:26;;;;;;;;;;;13.50;99.90;;;;;;21101065;28;20244;-74
2023/08/09 03:57:29;;;;;;;;;;;13.40;99.90;;;;;;21100988;28;19966;-73
2023/08/09 04:07:31;;;;;;;;;;;13.50;99.90;;;;;;21102955;28;19920;-73
2023/08/09 04:17:32;;;;;;;;;;;13.50;99.90;;;;;;21099134;28;19912;-74
2023/08/09 04:27:33;;;;;;;;;;;13.60;99.90;;;;;;21098761;28;19923;-73
2023/08/09 04:37:34;;;;;;;;;;;13.70;99.90;;;;;;21093608;28;20379;-74
2023/08/09 04:47:35;;;;;;;;;;;13.80;99.90;;;;;;21092779;28;20338;-74
2023/08/09 04:57:35;;;;;;;;;;;13.90;99.90;;;;;;21086602;28;19912;-74
2023/08/09 05:07:37;;;;;;;;;;;13.90;99.90;;;;;;21097901;28;19978;-74
2023/08/09 05:17:38;;;;;;;;;;;13.90;99.90;;;;;;21098628;28;19916;-74
2023/08/09 05:27:39;;;;;;;;;;;14.00;99.90;;;;;;21036883;28;19916;-73
2023/08/09 05:37:40;;;;;;;;;;;14.10;99.90;;;;;;21046062;28;19917;-73
2023/08/09 05:47:41;;;;;;;;;;;14.20;99.90;;;;;;21002874;28;19916;-73
2023/08/09 05:57:41;;;;;;;;;;;14.30;99.90;;;;;;21022376;28;20006;-73
2023/08/09 06:07:42;;;;;;;;;;;14.40;99.90;;;;;;21084347;28;19948;-71
2023/08/09 06:17:42;;;;;;;;;;;14.60;99.90;;;;;;21083046;28;19920;-72
2023/08/09 06:27:44;;;;;;;;;;;14.80;99.90;;;;;;21081441;28;19923;-71
2023/08/09 06:37:46;;;;;;;;;;;14.90;99.90;;;;;;21061944;28;19973;-71
2023/08/09 06:47:46;;;;;;;;;;;14.90;99.90;;;;;;21056589;28;20397;-71
2023/08/09 06:57:47;;;;;;;;;;;14.90;99.90;;;;;;21078392;28;19913;-72
2023/08/09 07:07:51;;;;;;;;;;;15.10;99.90;;;;;;21078983;28;20402;-71
2023/08/09 07:17:52;;;;;;;;;;;15.20;99.90;;;;;;21065177;28;20402;-71
2023/08/09 07:27:55;;;;;;;;;;;15.20;99.90;;;;;;21053928;28;21599;-71
2023/08/09 07:37:55;;;;;;;;;;;15.30;99.90;;;;;;21030094;28;20390;-71
2023/08/09 07:47:56;;;;;;;;;;;15.40;99.90;;;;;;21072863;28;19923;-71
2023/08/09 07:57:57;;;;;;;;;;;15.40;99.90;;;;;;21080556;28;20392;-72
2023/08/09 08:07:59;;;;;;;;;;;15.10;99.90;;;;;;21074274;28;19935;-73
2023/08/09 08:17:59;;;;;;;;;;;15.20;99.90;;;;;;21074865;28;20020;-73
2023/08/09 08:28:00;;;;;;;;;;;15.50;99.90;;;;;;21074815;28;19920;-72
2023/08/09 08:38:01;;;;;;;;;;;15.80;99.90;;;;;;21072756;28;19912;-72
2023/08/09 08:48:04;;;;;;;;;;;16.20;99.90;;;;;;21019057;28;19923;-71
2023/08/09 08:58:04;;;;;;;;;;;16.50;99.90;;;;;;21079397;28;19974;-71
2023/08/09 09:08:05;;;;;;;;;;;17.20;99.90;;;;;;21088498;28;19923;-71
2023/08/09 09:18:06;;;;;;;;;;;18.10;99.90;;;;;;21087687;28;19944;-71
2023/08/09 09:28:07;;;;;;;;;;;19.10;99.90;;;;;;21087077;28;19923;-71
2023/08/09 09:38:08;;;;;;;;;;;20.40;99.90;;;;;;21089287;28;19919;-71
2023/08/09 09:48:18;;;;;;;;;;;20.60;99.90;;;;;;21070382;28;19954;-71
2023/08/09 09:58:18;;;;;;;;;;;20.80;99.90;;;;;;21085206;28;19963;-71
2023/08/09 10:08:20;;;;;;;;;;;21.60;99.90;;;;;;21072707;28;20367;-71
2023/08/09 10:18:27;;;;;;;;;;;22.30;99.90;;;;;;21028837;28;19921;-71
2023/08/09 10:28:47;;;;;;;;;;;24.40;99.90;;;;;;21038921;28;19924;-71
2023/08/09 10:38:48;;;;;;;;;;;23.90;99.90;;;;;;21034886;28;19913;-71
2023/08/09 10:48:50;;;;;;;;;;;25.40;99.90;;;;;;21022154;28;19917;-71
2023/08/09 10:58:51;;;;;;;;;;;24.20;99.90;;;;;;21032029;28;19916;-70
2023/08/09 11:08:52;;;;;;;;;;;24.80;99.90;;;;;;21027924;28;19924;-70
2023/08/09 11:19:07;;;;;;;;;;;25.00;99.90;;;;;;21025520;28;19919;-70
2023/08/09 11:29:08;;;;;;;;;;;24.20;99.90;;;;;;21050903;28;20398;-72
2023/08/09 11:39:09;;;;;;;;;;;24.40;99.90;;;;;;21053133;28;19965;-71
2023/08/09 11:49:10;;;;;;;;;;;23.80;99.90;;;;;;21054011;28;19937;-71
2023/08/09 11:59:15;;;;;;;;;;;24.10;99.90;;;;;;21034861;28;19921;-71
2023/08/09 12:09:34;;;;;;;;;;;24.40;99.90;;;;;;21086323;28;19923;-72
2023/08/09 12:19:35;;;;;;;;;;;25.10;99.90;;;;;;21091148;28;19981;-72
2023/08/09 12:29:36;;;;;;;;;;;24.50;99.90;;;;;;21074434;28;19916;-72
2023/08/09 12:39:36;;;;;;;;;;;24.30;99.90;;;;;;21094988;28;20389;-72
2023/08/09 12:49:37;;;;;;;;;;;24.80;99.90;;;;;;21092479;28;19916;-72
2023/08/09 12:59:38;;;;;;;;;;;24.80;99.90;;;;;;21077827;28;20301;-72
2023/08/09 13:09:38;;;;;;;;;;;24.80;99.90;;;;;;21097543;28;19939;-71
2023/08/09 13:19:39;;;;;;;;;;;24.60;99.90;;;;;;21095153;28;20397;-72
2023/08/09 13:29:40;;;;;;;;;;;24.60;99.90;;;;;;21096384;28;19922;-72
2023/08/09 13:39:41;;;;;;;;;;;24.70;99.90;;;;;;21102559;28;20209;-72
2023/08/09 13:49:41;;;;;;;;;;;24.30;99.90;;;;;;21104975;28;19916;-72
2023/08/09 13:59:42;;;;;;;;;;;23.90;99.90;;;;;;21119716;28;19927;-72
2023/08/09 14:09:43;;;;;;;;;;;24.30;99.90;;;;;;21109718;28;19923;-73
2023/08/09 14:19:44;;;;;;;;;;;24.60;99.90;;;;;;21098585;28;19973;-73
2023/08/09 14:29:45;;;;;;;;;;;25.10;99.90;;;;;;21043308;28;19969;-73
2023/08/09 14:39:46;;;;;;;;;;;24.20;99.90;;;;;;21009200;28;20326;-73
2023/08/09 14:49:46;;;;;;;;;;;24.40;99.90;;;;;;21021518;28;19999;-72
2023/08/09 14:59:47;;;;;;;;;;;24.60;99.90;;;;;;21059304;28;19959;-72
2023/08/09 15:09:48;;;;;;;;;;;25.00;99.90;;;;;;21107628;28;20443;-72
2023/08/09 15:19:49;;;;;;;;;;;23.90;99.90;;;;;;21108761;28;19928;-72
2023/08/09 15:29:49;;;;;;;;;;;24.70;99.90;;;;;;21107981;28;19916;-72
2023/08/09 15:39:50;;;;;;;;;;;24.50;99.90;;;;;;21108776;28;19912;-73
2023/08/09 15:49:51;;;;;;;;;;;24.00;99.90;;;;;;21101120;28;19927;-73
2023/08/09 15:59:51;;;;;;;;;;;23.40;99.90;;;;;;21093847;28;19919;-73
2023/08/09 16:09:52;;;;;;;;;;;23.20;99.90;;;;;;21085365;28;19916;-73
2023/08/09 16:19:54;;;;;;;;;;;23.40;99.90;;;;;;21086320;28;20382;-73
2023/08/09 16:29:55;;;;;;;;;;;23.40;99.90;;;;;;21086015;28;19923;-72
2023/08/09 16:39:57;;;;;;;;;;;22.90;99.90;;;;;;21097191;28;20189;-72
2023/08/09 16:49:59;;;;;;;;;;;22.50;99.90;;;;;;21102424;28;19916;-72
2023/08/09 17:00:05;;;;;;;;;;;22.90;99.90;;;;;;21102956;28;19912;-73
2023/08/09 17:10:06;;;;;;;;;;;23.00;99.90;;;;;;21055939;28;19916;-72
2023/08/09 17:20:08;;;;;;;;;;;22.40;99.90;;;;;;21060728;28;19974;-73
2023/08/09 17:30:09;;;;;;;;;;;22.50;99.90;;;;;;21031329;22;20313;-76
2023/08/09 17:40:10;;;;;;;;;;;22.50;99.90;;;;;;21001864;28;20275;-76
2023/08/09 17:50:11;;;;;;;;;;;22.10;99.90;;;;;;21000380;28;19916;-77
2023/08/09 18:00:13;;;;;;;;;;;22.10;99.90;;;;;;21001591;28;19913;-77
2023/08/09 18:10:15;;;;;;;;;;;22.00;99.90;;;;;;20998318;28;19923;-75
2023/08/09 18:20:16;;;;;;;;;;;21.70;99.90;;;;;;21002992;28;19924;-81
2023/08/09 18:30:16;;;;;;;;;;;21.40;99.90;;;;;;21015805;28;19916;-79
2023/08/09 18:40:17;;;;;;;;;;;20.90;99.90;;;;;;21011108;28;20050;-78
2023/08/09 18:50:18;;;;;;;;;;;20.40;99.90;;;;;;21003383;28;19995;-78
2023/08/09 19:00:19;;;;;;;;;;;19.60;99.90;;;;;;21000510;28;19913;-76
2023/08/09 19:10:20;;;;;;;;;;;18.80;99.90;;;;;;20997391;28;19916;-77
2023/08/09 19:20:21;;;;;;;;;;;18.40;99.90;;;;;;21003447;28;19942;-77
2023/08/09 19:30:22;;;;;;;;;;;18.20;99.90;;;;;;20993984;28;19924;-77
2023/08/09 19:40:24;;;;;;;;;;;18.10;99.90;;;;;;20994240;28;19917;-77
2023/08/09 19:50:25;;;;;;;;;;;17.90;99.90;;;;;;20994532;28;20413;-77
2023/08/09 20:00:28;;;;;;;;;;;17.20;99.90;;;;;;20986263;28;20023;-77
2023/08/09 20:10:30;;;;;;;;;;;17.20;99.90;;;;;;20987633;28;19923;-78
2023/08/09 20:20:31;;;;;;;;;;;17.20;99.90;;;;;;20999680;28;20371;-78
2023/08/09 20:30:32;;;;;;;;;;;16.70;99.90;;;;;;20997685;28;19923;-77
2023/08/09 20:40:33;;;;;;;;;;;16.50;99.90;;;;;;21007501;28;19913;-77
2023/08/09 20:50:33;;;;;;;;;;;16.30;99.90;;;;;;21006790;28;19917;-77
2023/08/09 21:00:34;;;;;;;;;;;16.70;99.90;;;;;;21007220;28;19919;-77
2023/08/09 21:10:35;;;;;;;;;;;16.20;99.90;;;;;;21005160;28;20274;-77
2023/08/09 21:20:36;;;;;;;;;;;16.10;99.90;;;;;;21003295;28;19917;-76
2023/08/09 21:30:36;;;;;;;;;;;15.90;99.90;;;;;;21003966;28;19921;-77
2023/08/09 21:40:37;;;;;;;;;;;16.10;99.90;;;;;;21003757;28;20022;-77
2023/08/09 21:50:37;;;;;;;;;;;16.20;99.90;;;;;;21009006;28;20378;-77
2023/08/09 22:00:39;;;;;;;;;;;16.30;99.90;;;;;;20994684;28;20042;-77
2023/08/09 22:10:40;;;;;;;;;;;16.30;99.90;;;;;;21010651;28;19923;-78
2023/08/09 22:20:40;;;;;;;;;;;16.20;99.90;;;;;;21001648;28;19959;-77
2023/08/09 22:30:43;;;;;;;;;;;16.60;99.90;;;;;;21000284;28;19995;-77
2023/08/09 22:40:43;;;;;;;;;;;16.60;99.90;;;;;;20999543;28;19919;-77
2023/08/09 22:50:44;;;;;;;;;;;16.80;99.90;;;;;;21004870;28;19917;-78
2023/08/09 23:00:45;;;;;;;;;;;16.50;99.90;;;;;;21014935;28;19981;-78
2023/08/09 23:10:46;;;;;;;;;;;16.70;99.90;;;;;;21020221;28;19916;-78
2023/08/09 23:20:47;;;;;;;;;;;16.60;99.90;;;;;;21014597;28;19912;-78
2023/08/09 23:30:48;;;;;;;;;;;16.50;99.90;;;;;;20945574;22;19960;-77
2023/08/09 23:40:48;;;;;;;;;;;16.30;99.90;;;;;;20799849;28;19913;-76
2023/08/09 23:50:49;;;;;;;;;;;16.40;99.90;;;;;;20783151;28;20291;-76
